Time;durP1;ratioP1;P1;durP2;ratioP2;P2;SDS_P1;SDS_P2;PMS_P1;PMS_P2;Temp;Humidity;BMP_temperature;BMP_pressure;BME280_temperature;BME280_humidity;BME280_pressure;Samples;Min_cycle;Max_cycle;Signal;HPM_P1;HPM_P2
2021/11/04 00:01:03;;;;;;;2.72;0.80;;;12.00;99.90;;;;;;5034818;28;20409;-87
2021/11/04 00:03:29;;;;;;;0.90;0.63;;;12.00;99.90;;;;;;5035364;28;20022;-89
2021/11/04 00:05:55;;;;;;;0.88;0.70;;;12.00;99.90;;;;;;5035863;28;20170;-89
2021/11/04 00:08:21;;;;;;;0.98;0.80;;;12.00;99.90;;;;;;5034654;28;20035;-91
2021/11/04 00:10:47;;;;;;;2.08;0.80;;;12.10;99.90;;;;;;5035247;28;20668;-89
2021/11/04 00:13:12;;;;;;;3.55;0.73;;;12.10;99.90;;;;;;5035239;28;20116;-87
2021/11/04 00:15:38;;;;;;;1.90;0.82;;;12.00;99.90;;;;;;5035771;28;20456;-89
2021/11/04 00:18:04;;;;;;;4.03;2.60;;;12.00;99.90;;;;;;5036673;28;20382;-86
2021/11/04 00:20:30;;;;;;;5.60;3.40;;;12.00;99.90;;;;;;5033628;28;20033;-87
2021/11/04 00:22:56;;;;;;;4.95;2.35;;;12.00;99.90;;;;;;5036618;28;20036;-93
2021/11/04 00:25:22;;;;;;;1.50;1.30;;;12.00;99.90;;;;;;5054097;28;20537;-86
2021/11/04 00:27:49;;;;;;;4.18;1.38;;;12.10;99.90;;;;;;5035640;28;20533;-89
2021/11/04 00:30:15;;;;;;;1.23;1.02;;;12.10;99.90;;;;;;5036186;28;20029;-85
2021/11/04 00:32:50;;;;;;;1.20;1.08;;;12.00;99.90;;;;;;5053552;28;20047;-85
2021/11/04 00:35:17;;;;;;;1.10;1.00;;;12.00;99.90;;;;;;5036007;28;20078;-87
2021/11/04 00:37:43;;;;;;;0.77;0.50;;;12.00;99.90;;;;;;5053580;28;20394;-87
2021/11/04 00:40:11;;;;;;;1.38;0.50;;;12.00;99.90;;;;;;5053263;28;20032;-85
2021/11/04 00:42:37;;;;;;;0.63;0.60;;;12.00;99.90;;;;;;5053462;28;20013;-86
2021/11/04 00:45:03;;;;;;;0.60;0.60;;;12.00;99.90;;;;;;5035437;28;20108;-86
2021/11/04 00:47:29;;;;;;;0.43;0.43;;;12.00;99.90;;;;;;5053244;28;20496;-85
2021/11/04 00:49:55;;;;;;;1.70;0.50;;;12.00;99.90;;;;;;5035280;28;20076;-84
2021/11/04 00:52:20;;;;;;;0.40;0.40;;;12.00;99.90;;;;;;5053039;28;20024;-85
2021/11/04 00:54:46;;;;;;;0.38;0.38;;;12.00;99.90;;;;;;5033219;28;20615;-82
2021/11/04 00:57:12;;;;;;;0.40;0.40;;;12.00;99.90;;;;;;5049586;28;20025;-82
2021/11/04 00:59:37;;;;;;;0.63;0.40;;;12.00;99.90;;;;;;5031855;28;20032;-83
2021/11/04 01:02:03;;;;;;;0.60;0.50;;;12.00;99.90;;;;;;5031492;28;20544;-82
2021/11/04 01:04:29;;;;;;;0.30;0.30;;;12.00;99.90;;;;;;5031778;28;20079;-82
2021/11/04 01:06:55;;;;;;;1.45;0.50;;;12.00;99.90;;;;;;5067082;28;20039;-82
2021/11/04 01:09:23;;;;;;;0.40;0.40;;;12.00;99.90;;;;;;5051584;28;20051;-82
2021/11/04 01:11:49;;;;;;;0.63;0.38;;;12.00;99.90;;;;;;5053039;28;20074;-82
2021/11/04 01:14:15;;;;;;;0.50;0.50;;;12.10;99.90;;;;;;5071354;28;20025;-82
2021/11/04 01:16:41;;;;;;;0.57;0.50;;;12.00;99.90;;;;;;5049795;28;20013;-82
2021/11/04 01:19:08;;;;;;;0.57;0.57;;;12.10;99.90;;;;;;5053121;28;20543;-82
2021/11/04 01:21:34;;;;;;;0.40;0.40;;;12.00;99.90;;;;;;5053126;28;20059;-82
2021/11/04 01:24:00;;;;;;;0.55;0.50;;;12.00;99.90;;;;;;5053075;28;20017;-82
2021/11/04 01:26:25;;;;;;;0.50;0.50;;;12.00;99.90;;;;;;5071215;28;20480;-82
2021/11/04 01:28:51;;;;;;;0.57;0.57;;;12.00;99.90;;;;;;5053323;28;20433;-82
2021/11/04 01:31:17;;;;;;;0.40;0.40;;;11.90;99.90;;;;;;5053311;28;20074;-83
2021/11/04 01:33:43;;;;;;;0.77;0.77;;;11.90;99.90;;;;;;5052636;28;20039;-82
2021/11/04 01:36:09;;;;;;;1.95;0.65;;;11.80;99.90;;;;;;5082366;28;20024;-82
2021/11/04 01:38:34;;;;;;;0.40;0.40;;;11.80;99.90;;;;;;5091281;28;20496;-83
2021/11/04 01:41:00;;;;;;;0.10;0.10;;;11.80;99.90;;;;;;5073184;28;20507;-82
2021/11/04 01:43:27;;;;;;;0.98;0.35;;;11.80;99.90;;;;;;5073242;28;20024;-83
2021/11/04 01:45:54;;;;;;;0.25;0.25;;;11.70;99.90;;;;;;5073129;28;20024;-82
2021/11/04 01:48:21;;;;;;;0.10;0.10;;;11.80;99.90;;;;;;5076910;28;20028;-82
2021/11/04 01:50:50;;;;;;;0.30;0.30;;;11.70;99.90;;;;;;5076959;28;20020;-82
2021/11/04 01:53:20;;;;;;;0.20;0.20;;;11.70;99.90;;;;;;5077024;28;20028;-82
2021/11/04 01:55:47;;;;;;;0.15;0.15;;;11.70;99.90;;;;;;5076783;28;20028;-82
2021/11/04 01:58:12;;;;;;;0.20;0.20;;;11.80;99.90;;;;;;5076684;28;20032;-82
2021/11/04 02:00:38;;;;;;;0.20;0.20;;;11.80;99.90;;;;;;5094941;28;20436;-82
2021/11/04 02:03:19;;;;;;;0.10;0.10;;;11.80;99.90;;;;;;5077014;28;20035;-82
2021/11/04 02:05:56;;;;;;;0.75;0.32;;;11.80;99.90;;;;;;5076555;28;20049;-82
2021/11/04 02:08:46;;;;;;;0.30;0.30;;;11.80;99.90;;;;;;5076766;28;20038;-82
2021/11/04 02:11:22;;;;;;;0.40;0.40;;;11.80;99.90;;;;;;5076670;28;20109;-82
2021/11/04 02:14:04;;;;;;;1.45;0.43;;;11.80;99.90;;;;;;5076196;28;20031;-82
2021/11/04 02:16:31;;;;;;;0.55;0.50;;;11.80;99.90;;;;;;5094669;28;20025;-82
2021/11/04 02:19:01;;;;;;;0.70;0.60;;;11.80;99.90;;;;;;5076522;28;20028;-82
2021/11/04 02:21:36;;;;;;;0.40;0.40;;;11.70;99.90;;;;;;5076263;28;20047;-82
2021/11/04 02:24:21;;;;;;;1.00;0.60;;;11.70;99.90;;;;;;5054160;28;20032;-82
2021/11/04 02:26:48;;;;;;;0.70;0.70;;;11.70;99.90;;;;;;5054551;28;20048;-82
2021/11/04 02:29:16;;;;;;;1.10;0.50;;;11.60;99.90;;;;;;5052828;28;20502;-82
2021/11/04 02:31:47;;;;;;;0.70;0.70;;;11.70;99.90;;;;;;5052785;28;20120;-82
2021/11/04 02:34:14;;;;;;;0.57;0.57;;;11.70;99.90;;;;;;5052631;28;20017;-82
2021/11/04 02:36:42;;;;;;;0.70;0.70;;;11.70;99.90;;;;;;5053924;28;20021;-82
2021/11/04 02:39:09;;;;;;;0.60;0.60;;;11.70;99.90;;;;;;5054142;28;20052;-82
2021/11/04 02:41:35;;;;;;;0.40;0.40;;;11.70;99.90;;;;;;5052749;28;20107;-82
2021/11/04 02:44:01;;;;;;;1.38;0.40;;;11.70;99.90;;;;;;5052347;28;20124;-82
2021/11/04 02:46:28;;;;;;;0.50;0.50;;;11.70;99.90;;;;;;5052642;28;20033;-82
2021/11/04 02:48:55;;;;;;;2.92;0.50;;;11.60;99.90;;;;;;5052672;28;20099;-81
2021/11/04 02:51:21;;;;;;;3.38;0.75;;;11.60;99.90;;;;;;5053666;28;20025;-82
2021/11/04 02:53:48;;;;;;;0.47;0.40;;;11.60;99.90;;;;;;5052454;28;20021;-82
2021/11/04 02:56:14;;;;;;;0.30;0.30;;;11.60;99.90;;;;;;5052426;28;20032;-82
2021/11/04 02:58:40;;;;;;;0.40;0.40;;;11.60;99.90;;;;;;5067742;28;20032;-82
2021/11/04 03:01:06;;;;;;;0.40;0.38;;;11.60;99.90;;;;;;5053535;28;20025;-81
2021/11/04 03:03:32;;;;;;;1.20;0.38;;;11.60;99.90;;;;;;5068870;28;20021;-82
2021/11/04 03:05:58;;;;;;;0.45;0.30;;;11.60;99.90;;;;;;5043679;28;20088;-82
2021/11/04 03:08:25;;;;;;;0.32;0.32;;;11.50;99.90;;;;;;5031408;28;20533;-82
2021/11/04 03:10:54;;;;;;;1.95;0.40;;;11.50;99.90;;;;;;5015541;28;20037;-82
2021/11/04 03:13:23;;;;;;;0.45;0.40;;;11.50;99.90;;;;;;5012420;28;20388;-82
2021/11/04 03:16:14;;;;;;;0.75;0.47;;;11.60;99.90;;;;;;5012152;28;20076;-82
2021/11/04 03:18:40;;;;;;;1.35;0.40;;;11.60;99.90;;;;;;5013481;28;20065;-82
2021/11/04 03:21:06;;;;;;;0.40;0.40;;;11.60;99.90;;;;;;5013340;28;20028;-82
2021/11/04 03:23:32;;;;;;;4.65;1.17;;;11.50;99.90;;;;;;5046636;28;20445;-86
2021/11/04 03:26:00;;;;;;;1.42;0.70;;;11.20;99.90;;;;;;5035775;28;20025;-87
2021/11/04 03:28:26;;;;;;;0.40;0.40;;;11.00;99.90;;;;;;5035877;28;20037;-86
2021/11/04 03:30:55;;;;;;;0.28;0.28;;;11.00;99.90;;;;;;5035187;28;20029;-85
2021/11/04 03:33:24;;;;;;;1.20;0.40;;;10.90;99.90;;;;;;5035159;28;20044;-85
2021/11/04 03:35:51;;;;;;;0.35;0.35;;;10.90;99.90;;;;;;5047545;28;20031;-85
2021/11/04 03:38:17;;;;;;;0.52;0.30;;;10.90;99.90;;;;;;5073056;28;20029;-84
2021/11/04 03:40:43;;;;;;;1.00;0.30;;;11.00;99.90;;;;;;5054891;28;20017;-85
2021/11/04 03:43:10;;;;;;;0.43;0.32;;;11.00;99.90;;;;;;5054793;28;20025;-84
2021/11/04 03:45:37;;;;;;;0.38;0.30;;;11.00;99.90;;;;;;5072770;28;20021;-84
2021/11/04 03:48:04;;;;;;;0.40;0.40;;;11.00;99.90;;;;;;5054770;28;20031;-83
2021/11/04 03:50:31;;;;;;;0.40;0.40;;;11.10;99.90;;;;;;5072442;28;20027;-83
2021/11/04 03:52:57;;;;;;;0.30;0.30;;;11.20;99.90;;;;;;5054686;28;20035;-83
2021/11/04 03:55:25;;;;;;;0.40;0.40;;;11.20;99.90;;;;;;5054613;28;20031;-83
2021/11/04 03:57:52;;;;;;;0.35;0.35;;;11.20;99.90;;;;;;5054291;28;20452;-82
2021/11/04 04:00:18;;;;;;;0.32;0.32;;;11.20;99.90;;;;;;5054509;28;20031;-83
2021/11/04 04:02:49;;;;;;;0.50;0.50;;;11.20;99.90;;;;;;5054660;28;20021;-83
2021/11/04 04:05:24;;;;;;;0.52;0.52;;;11.20;99.90;;;;;;5058209;28;20024;-82
2021/11/04 04:07:50;;;;;;;0.70;0.70;;;11.20;99.90;;;;;;5074271;28;20060;-83
2021/11/04 04:10:19;;;;;;;0.73;0.73;;;11.20;99.90;;;;;;5074053;28;20077;-82
2021/11/04 04:12:46;;;;;;;0.85;0.85;;;11.20;99.90;;;;;;5074174;28;20024;-83
2021/11/04 04:15:12;;;;;;;1.23;1.23;;;11.30;99.90;;;;;;5074038;28;20111;-82
2021/11/04 04:17:38;;;;;;;1.35;1.30;;;11.30;99.90;;;;;;5074102;28;20118;-83
2021/11/04 04:20:04;;;;;;;1.60;1.50;;;11.30;99.90;;;;;;5073980;28;20055;-83
2021/11/04 04:22:30;;;;;;;2.13;2.03;;;11.30;99.90;;;;;;5073754;28;20561;-82
2021/11/04 04:24:56;;;;;;;2.90;2.70;;;11.40;99.90;;;;;;5073954;28;20115;-82
2021/11/04 04:27:21;;;;;;;3.05;2.85;;;11.30;99.90;;;;;;5092287;28;20394;-82
2021/11/04 04:29:47;;;;;;;4.75;4.38;;;11.30;99.90;;;;;;5091988;28;20036;-82
2021/11/04 04:32:16;;;;;;;4.45;4.10;;;11.30;99.90;;;;;;5092209;28;20062;-83
2021/11/04 04:34:42;;;;;;;4.70;4.30;;;11.40;99.90;;;;;;5074023;28;20081;-82
2021/11/04 04:37:08;;;;;;;5.32;4.93;;;11.30;99.90;;;;;;5073668;28;20119;-83
2021/11/04 04:39:34;;;;;;;4.68;4.28;;;11.30;99.90;;;;;;5073767;28;20024;-82
2021/11/04 04:42:01;;;;;;;5.00;4.10;;;11.30;99.90;;;;;;5073641;28;20389;-83
2021/11/04 04:44:29;;;;;;;4.60;4.20;;;11.40;99.90;;;;;;5091748;28;20028;-83
2021/11/04 04:46:55;;;;;;;4.57;4.20;;;11.40;99.90;;;;;;5091783;28;20020;-82
2021/11/04 04:49:21;;;;;;;4.95;4.45;;;11.40;99.90;;;;;;5073766;28;20367;-82
2021/11/04 04:51:47;;;;;;;4.97;4.57;;;11.30;99.90;;;;;;5073577;28;20024;-82
2021/11/04 04:54:12;;;;;;;5.40;4.90;;;11.30;99.90;;;;;;5073337;28;20055;-82
2021/11/04 04:56:38;;;;;;;4.80;4.40;;;11.40;99.90;;;;;;5091812;28;20016;-82
2021/11/04 04:59:04;;;;;;;5.00;4.60;;;11.40;99.90;;;;;;5073388;28;20032;-82
2021/11/04 05:01:30;;;;;;;5.25;4.75;;;11.30;99.90;;;;;;5073484;28;20038;-82
2021/11/04 05:03:56;;;;;;;5.28;4.78;;;11.40;99.90;;;;;;5091623;28;20111;-82
2021/11/04 05:06:22;;;;;;;5.57;4.72;;;11.40;99.90;;;;;;5073347;28;20243;-82
2021/11/04 05:08:48;;;;;;;7.53;5.80;;;11.40;99.90;;;;;;5073304;28;20397;-82
2021/11/04 05:11:14;;;;;;;5.75;5.15;;;11.30;99.90;;;;;;5068003;28;20569;-83
2021/11/04 05:13:40;;;;;;;5.85;5.25;;;11.30;99.90;;;;;;5033586;28;20117;-82
2021/11/04 05:16:05;;;;;;;6.35;5.18;;;11.30;99.90;;;;;;5033418;28;20112;-82
2021/11/04 05:18:31;;;;;;;5.40;4.90;;;11.30;99.90;;;;;;5051352;28;20398;-82
2021/11/04 05:20:57;;;;;;;4.95;4.50;;;11.30;99.90;;;;;;5033441;28;20060;-82
2021/11/04 05:23:23;;;;;;;4.93;4.50;;;11.30;99.90;;;;;;5055097;28;20528;-82
2021/11/04 05:25:48;;;;;;;4.88;4.47;;;11.40;99.90;;;;;;5037414;28;20471;-82
2021/11/04 05:28:14;;;;;;;5.22;4.78;;;11.40;99.90;;;;;;5037400;28;20025;-82
2021/11/04 05:30:42;;;;;;;4.93;4.53;;;11.40;99.90;;;;;;5037514;28;20047;-82
2021/11/04 05:33:08;;;;;;;4.70;4.30;;;11.30;99.90;;;;;;5037309;28;20043;-82
2021/11/04 05:35:33;;;;;;;5.40;4.90;;;11.30;99.90;;;;;;5046342;28;20398;-82
2021/11/04 05:37:59;;;;;;;4.60;4.20;;;11.30;99.90;;;;;;5075034;28;20021;-82
2021/11/04 05:40:25;;;;;;;4.75;4.40;;;11.30;99.90;;;;;;5071022;28;20016;-82
2021/11/04 05:42:51;;;;;;;4.82;4.38;;;11.30;99.90;;;;;;5074844;28;20054;-82
2021/11/04 05:45:17;;;;;;;5.70;5.20;;;11.20;99.90;;;;;;5057120;28;20025;-82
2021/11/04 05:47:43;;;;;;;5.55;4.72;;;11.30;99.90;;;;;;5056905;28;20081;-82
2021/11/04 05:50:09;;;;;;;5.40;5.00;;;11.20;99.90;;;;;;5074817;28;20070;-82
2021/11/04 05:52:35;;;;;;;4.90;4.50;;;11.20;99.90;;;;;;5056903;28;20059;-82
2021/11/04 05:55:01;;;;;;;4.75;4.35;;;11.10;99.90;;;;;;5074539;28;20067;-82
2021/11/04 05:57:27;;;;;;;4.88;4.07;;;11.10;99.90;;;;;;5056596;28;20060;-82
2021/11/04 05:59:54;;;;;;;4.28;3.97;;;11.00;99.90;;;;;;5056543;28;20557;-82
2021/11/04 06:02:20;;;;;;;5.80;4.32;;;10.80;99.90;;;;;;5074744;28;20482;-82
2021/11/04 06:04:46;;;;;;;6.00;4.95;;;10.80;99.90;;;;;;5074525;28;20142;-82
2021/11/04 06:07:13;;;;;;;5.45;4.88;;;10.70;99.90;;;;;;5094694;28;20493;-82
2021/11/04 06:09:40;;;;;;;5.45;4.95;;;10.70;99.90;;;;;;5094710;28;20039;-82
2021/11/04 06:12:06;;;;;;;6.07;5.00;;;10.70;99.90;;;;;;5076111;28;20035;-82
2021/11/04 06:14:32;;;;;;;4.78;4.40;;;10.60;99.90;;;;;;5074680;28;20052;-82
2021/11/04 06:16:58;;;;;;;6.63;4.80;;;10.60;99.90;;;;;;5075199;28;20052;-82
2021/11/04 06:19:23;;;;;;;6.07;4.75;;;10.60;99.90;;;;;;5075296;28;20028;-82
2021/11/04 06:21:49;;;;;;;6.85;5.57;;;10.60;99.90;;;;;;5093166;28;20028;-82
2021/11/04 06:24:15;;;;;;;6.43;3.90;;;10.60;99.90;;;;;;5075002;28;20052;-82
2021/11/04 06:26:41;;;;;;;5.85;4.53;;;10.50;99.90;;;;;;5093390;28;20508;-82
2021/11/04 06:29:06;;;;;;;4.60;3.70;;;10.50;99.90;;;;;;5074985;28;20024;-82
2021/11/04 06:31:32;;;;;;;3.38;3.08;;;10.50;99.90;;;;;;5074469;28;20146;-81
2021/11/04 06:34:00;;;;;;;3.50;3.30;;;10.50;99.90;;;;;;5074818;28;20382;-82
2021/11/04 06:36:26;;;;;;;2.90;2.70;;;10.50;99.90;;;;;;5075463;28;20038;-82
2021/11/04 06:38:52;;;;;;;5.32;4.90;;;10.60;99.90;;;;;;5075712;28;20103;-82
2021/11/04 06:41:18;;;;;;;5.65;5.03;;;10.70;99.90;;;;;;5075761;28;20024;-82
2021/11/04 06:43:44;;;;;;;5.80;5.22;;;10.70;99.90;;;;;;5075617;28;20051;-82
2021/11/04 06:46:12;;;;;;;6.22;5.60;;;10.80;99.90;;;;;;5076001;28;20054;-82
2021/11/04 06:48:44;;;;;;;6.80;6.10;;;10.80;99.90;;;;;;5075896;28;20031;-82
2021/11/04 06:51:17;;;;;;;7.25;6.43;;;10.80;99.90;;;;;;5075934;28;20371;-82
2021/11/04 06:53:45;;;;;;;6.40;5.80;;;10.70;99.90;;;;;;5093904;28;20035;-83
2021/11/04 06:56:11;;;;;;;7.30;6.60;;;10.70;99.90;;;;;;5076828;28;20028;-82
2021/11/04 06:58:38;;;;;;;7.72;6.03;;;10.70;99.90;;;;;;5075962;28;20024;-82
2021/11/04 07:01:25;;;;;;;8.50;5.55;;;10.70;99.90;;;;;;5075564;28;20024;-83
2021/11/04 07:04:07;;;;;;;6.25;4.90;;;10.70;99.90;;;;;;5093563;28;20032;-82
2021/11/04 07:06:42;;;;;;;5.72;3.90;;;10.70;99.90;;;;;;5061145;28;20017;-82
2021/11/04 07:09:08;;;;;;;5.15;3.53;;;10.80;99.90;;;;;;5055516;28;20025;-82
2021/11/04 07:11:34;;;;;;;3.88;3.58;;;10.80;99.90;;;;;;5055304;28;20020;-82
2021/11/04 07:14:01;;;;;;;3.55;3.25;;;10.80;99.90;;;;;;5055227;28;20024;-82
2021/11/04 07:16:28;;;;;;;4.70;4.30;;;10.90;99.90;;;;;;5055446;28;20418;-83
2021/11/04 07:18:56;;;;;;;6.03;5.10;;;10.90;99.90;;;;;;5055177;28;20120;-82
2021/11/04 07:21:26;;;;;;;10.02;8.02;;;11.00;99.90;;;;;;5051852;28;20424;-83
2021/11/04 07:23:59;;;;;;;12.57;8.82;;;11.00;99.90;;;;;;5051700;28;20407;-82
2021/11/04 07:26:39;;;;;;;14.02;10.15;;;11.00;99.90;;;;;;5051857;28;20035;-82
2021/11/04 07:29:06;;;;;;;15.23;11.02;;;11.00;99.90;;;;;;5052045;28;20132;-82
2021/11/04 07:31:37;;;;;;;16.90;11.02;;;11.00;99.90;;;;;;5051741;28;20486;-82
2021/11/04 07:34:05;;;;;;;12.50;9.93;;;11.00;99.90;;;;;;5053086;28;20025;-82
2021/11/04 07:36:36;;;;;;;9.23;8.25;;;10.90;99.90;;;;;;5037908;28;20025;-82
2021/11/04 07:39:04;;;;;;;9.98;7.78;;;10.80;99.90;;;;;;5031832;28;20022;-82
2021/11/04 07:41:32;;;;;;;8.52;6.85;;;10.70;99.90;;;;;;5046507;28;20475;-84
2021/11/04 07:44:02;;;;;;;7.07;6.38;;;10.70;99.90;;;;;;5052191;28;20051;-82
2021/11/04 07:46:29;;;;;;;7.40;6.20;;;10.70;99.90;;;;;;5054061;28;20021;-81
2021/11/04 07:48:55;;;;;;;6.35;5.75;;;10.60;99.90;;;;;;5053148;28;20447;-82
2021/11/04 07:51:24;;;;;;;5.50;4.97;;;10.70;99.90;;;;;;5052738;28;20061;-82
2021/11/04 07:53:50;;;;;;;5.38;4.97;;;10.60;99.90;;;;;;5053754;28;20108;-82
2021/11/04 07:56:16;;;;;;;5.70;5.30;;;10.60;99.90;;;;;;5052710;28;20124;-83
2021/11/04 07:58:42;;;;;;;5.20;4.80;;;10.60;99.90;;;;;;5052269;28;20035;-82
2021/11/04 08:01:08;;;;;;;6.50;5.90;;;10.60;99.90;;;;;;5053376;28;20017;-82
2021/11/04 08:03:33;;;;;;;6.75;6.05;;;10.70;99.90;;;;;;5052016;28;20390;-82
2021/11/04 08:05:59;;;;;;;6.07;5.47;;;10.60;99.90;;;;;;5042469;28;20117;-82
2021/11/04 08:08:25;;;;;;;6.38;5.88;;;10.70;99.90;;;;;;5033867;28;20069;-82
2021/11/04 08:10:52;;;;;;;6.57;5.90;;;10.80;99.90;;;;;;5033688;28;20061;-82
2021/11/04 08:13:19;;;;;;;7.38;6.05;;;10.90;99.90;;;;;;5032344;28;20030;-82
2021/11/04 08:15:45;;;;;;;6.47;5.88;;;11.00;99.90;;;;;;5033510;28;20112;-82
2021/11/04 08:18:10;;;;;;;6.25;5.65;;;11.00;99.90;;;;;;5031009;28;20124;-83
2021/11/04 08:20:40;;;;;;;6.78;5.93;;;11.10;99.90;;;;;;5028928;28;20071;-82
2021/11/04 08:23:13;;;;;;;6.35;5.75;;;11.20;99.90;;;;;;5043122;28;20134;-82
2021/11/04 08:25:40;;;;;;;6.03;5.45;;;11.20;99.90;;;;;;5032423;28;20049;-83
2021/11/04 08:28:06;;;;;;;7.45;5.50;;;11.20;99.90;;;;;;5050462;28;20102;-83
2021/11/04 08:30:32;;;;;;;6.25;5.65;;;11.20;99.90;;;;;;5033072;28;20437;-83
2021/11/04 08:32:58;;;;;;;6.35;5.75;;;11.20;99.90;;;;;;5033880;28;20033;-82
2021/11/04 08:35:23;;;;;;;6.60;5.95;;;11.20;99.90;;;;;;5038989;28;20039;-82
2021/11/04 08:37:49;;;;;;;6.60;6.00;;;11.20;99.90;;;;;;5053763;28;20025;-82
2021/11/04 08:40:15;;;;;;;7.10;6.32;;;11.20;99.90;;;;;;5071868;28;20029;-82
2021/11/04 08:42:41;;;;;;;8.77;7.07;;;11.20;99.90;;;;;;5053558;28;20016;-82
2021/11/04 08:45:08;;;;;;;6.82;6.15;;;11.20;99.90;;;;;;5053733;28;20020;-82
2021/11/04 08:47:35;;;;;;;8.43;7.13;;;11.30;99.90;;;;;;5053406;28;20025;-82
2021/11/04 08:50:02;;;;;;;8.10;6.88;;;11.40;99.90;;;;;;5071619;28;20025;-82
2021/11/04 08:52:29;;;;;;;7.60;6.80;;;11.40;99.90;;;;;;5053421;28;20032;-82
2021/11/04 08:54:55;;;;;;;10.35;7.57;;;11.50;99.90;;;;;;5071253;28;20102;-82
2021/11/04 08:57:21;;;;;;;6.88;6.18;;;11.50;99.90;;;;;;5050937;28;20020;-82
2021/11/04 08:59:49;;;;;;;6.20;5.63;;;11.60;99.90;;;;;;5067949;28;20021;-81
2021/11/04 09:02:21;;;;;;;6.00;5.15;;;11.70;99.90;;;;;;5041484;28;20025;-82
2021/11/04 09:04:51;;;;;;;4.88;4.38;;;11.80;99.90;;;;;;5041246;28;20017;-82
2021/11/04 09:07:23;;;;;;;6.13;4.80;;;11.80;99.90;;;;;;5044093;28;20021;-82
2021/11/04 09:09:50;;;;;;;5.32;4.50;;;11.80;99.90;;;;;;5043529;28;20023;-81
2021/11/04 09:12:16;;;;;;;5.85;5.20;;;11.80;99.90;;;;;;5041745;28;20380;-82
2021/11/04 09:14:42;;;;;;;5.82;5.22;;;11.70;99.90;;;;;;5043263;28;20017;-83
2021/11/04 09:17:09;;;;;;;5.88;5.28;;;11.60;99.90;;;;;;5056526;28;20518;-82
2021/11/04 09:19:34;;;;;;;6.35;5.43;;;11.60;99.90;;;;;;5042614;28;20115;-82
2021/11/04 09:22:00;;;;;;;5.72;5.18;;;11.60;99.90;;;;;;5053255;28;20128;-82
2021/11/04 09:24:30;;;;;;;5.28;4.78;;;11.60;99.90;;;;;;5053224;28;20485;-82
2021/11/04 09:26:57;;;;;;;5.40;5.00;;;11.70;99.90;;;;;;5053423;28;20494;-82
2021/11/04 09:29:24;;;;;;;5.05;4.50;;;11.80;99.90;;;;;;5067964;28;20078;-82
2021/11/04 09:31:50;;;;;;;4.20;3.85;;;11.80;99.90;;;;;;5053263;28;20059;-82
2021/11/04 09:34:16;;;;;;;4.15;3.80;;;11.90;99.90;;;;;;5053068;28;20052;-82
2021/11/04 09:36:45;;;;;;;4.30;4.00;;;11.90;99.90;;;;;;5037672;28;20116;-82
2021/11/04 09:39:11;;;;;;;3.63;3.20;;;11.90;99.90;;;;;;5051872;28;20052;-82
2021/11/04 09:41:36;;;;;;;3.55;3.28;;;11.90;99.90;;;;;;5055452;28;20017;-82
2021/11/04 09:44:04;;;;;;;5.53;3.33;;;12.00;99.90;;;;;;5054322;28;20028;-82
2021/11/04 09:46:31;;;;;;;3.40;3.10;;;12.10;99.90;;;;;;5054447;28;20059;-82
2021/11/04 09:48:56;;;;;;;3.03;2.85;;;12.20;99.90;;;;;;5054415;28;20028;-82
2021/11/04 09:51:22;;;;;;;3.90;3.60;;;12.20;99.90;;;;;;5054507;28;20616;-82
2021/11/04 09:53:49;;;;;;;3.28;3.05;;;12.30;99.90;;;;;;5053616;28;20028;-82
2021/11/04 09:56:16;;;;;;;3.67;2.92;;;12.30;99.90;;;;;;5053429;28;20056;-82
2021/11/04 09:59:19;;;;;;;2.65;2.55;;;12.40;99.90;;;;;;5052686;28;20024;-82
2021/11/04 10:02:13;;;;;;;4.90;2.80;;;12.50;99.90;;;;;;5058881;28;20017;-82
2021/11/04 10:04:40;;;;;;;2.50;2.40;;;12.50;99.90;;;;;;5033383;28;20029;-82
2021/11/04 10:07:07;;;;;;;3.20;2.90;;;12.50;99.90;;;;;;5053436;28;20559;-82
2021/11/04 10:09:33;;;;;;;10.23;3.10;;;12.60;99.90;;;;;;5057704;28;20107;-82
2021/11/04 10:12:11;;;;;;;2.70;2.60;;;12.60;99.90;;;;;;5056120;28;20107;-85
2021/11/04 10:14:38;;;;;;;2.67;2.55;;;12.60;99.90;;;;;;5056124;28;20021;-87
2021/11/04 10:17:05;;;;;;;5.00;2.70;;;12.50;99.90;;;;;;5056072;28;20028;-86
2021/11/04 10:19:41;;;;;;;3.20;2.90;;;12.40;99.90;;;;;;5056662;28;20048;-87
2021/11/04 10:22:07;;;;;;;3.38;2.50;;;12.30;99.90;;;;;;5056713;28;20048;-87
2021/11/04 10:24:32;;;;;;;2.42;2.33;;;12.40;99.90;;;;;;5057161;28;20082;-87
2021/11/04 10:26:58;;;;;;;1.85;1.75;;;12.30;99.90;;;;;;5074962;28;20099;-86
2021/11/04 10:29:25;;;;;;;2.10;2.00;;;12.40;99.90;;;;;;5074679;28;20168;-87
2021/11/04 10:31:57;;;;;;;1.70;1.60;;;12.50;99.90;;;;;;5074973;28;20060;-88
2021/11/04 10:34:28;;;;;;;2.25;1.05;;;12.50;99.90;;;;;;5057004;28;20025;-88
2021/11/04 10:36:55;;;;;;;1.83;1.60;;;12.60;99.90;;;;;;5074763;28;20074;-88
2021/11/04 10:39:28;;;;;;;1.60;1.50;;;12.60;99.90;;;;;;5073494;28;20543;-88
2021/11/04 10:41:57;;;;;;;1.10;1.10;;;12.60;99.90;;;;;;5073819;28;20478;-88
2021/11/04 10:44:23;;;;;;;1.00;1.00;;;12.50;99.90;;;;;;5073598;28;20036;-89
2021/11/04 10:46:49;;;;;;;1.20;1.10;;;12.60;99.90;;;;;;5073234;28;20554;-87
2021/11/04 10:49:17;;;;;;;1.17;0.82;;;12.60;99.90;;;;;;5073551;28;20032;-87
2021/11/04 10:51:44;;;;;;;0.70;0.70;;;12.70;99.90;;;;;;5073254;28;20028;-87
2021/11/04 10:54:15;;;;;;;1.83;0.77;;;12.80;99.90;;;;;;5073115;28;20035;-86
2021/11/04 10:56:45;;;;;;;0.80;0.80;;;12.80;99.90;;;;;;5072970;28;20039;-87
2021/11/04 10:59:16;;;;;;;0.90;0.90;;;12.90;99.90;;;;;;5072807;28;20210;-86
2021/11/04 11:01:42;;;;;;;3.37;1.50;;;13.00;99.90;;;;;;5073446;28;20111;-87
2021/11/04 11:04:22;;;;;;;1.48;1.38;;;13.00;99.90;;;;;;5073369;28;20530;-86
2021/11/04 11:06:53;;;;;;;1.77;1.67;;;13.10;99.90;;;;;;5073249;28;20055;-87
2021/11/04 11:09:24;;;;;;;1.45;1.40;;;12.90;99.90;;;;;;5074280;28;20028;-87
2021/11/04 11:11:55;;;;;;;1.58;1.48;;;12.90;99.90;;;;;;5074209;28;20486;-88
2021/11/04 11:14:27;;;;;;;1.55;1.48;;;12.90;99.90;;;;;;5074245;28;20381;-88
2021/11/04 11:16:55;;;;;;;1.95;1.85;;;12.80;99.90;;;;;;5073065;28;20478;-86
2021/11/04 11:19:28;;;;;;;1.30;1.30;;;12.80;99.90;;;;;;5071533;28;20445;-87
2021/11/04 11:21:54;;;;;;;3.13;2.92;;;12.80;99.90;;;;;;5072609;28;20386;-88
2021/11/04 11:24:34;;;;;;;2.20;2.10;;;12.70;99.90;;;;;;5072594;28;20027;-87
2021/11/04 11:27:02;;;;;;;2.33;1.95;;;12.70;99.90;;;;;;5072535;28;20017;-87
2021/11/04 11:29:42;;;;;;;2.17;2.08;;;12.70;99.90;;;;;;5068469;28;20359;-87
2021/11/04 11:32:21;;;;;;;2.28;2.10;;;12.70;99.90;;;;;;5055555;28;20020;-86
2021/11/04 11:34:47;;;;;;;2.63;2.42;;;12.70;99.90;;;;;;5073765;28;20028;-87
2021/11/04 11:37:24;;;;;;;3.72;2.33;;;12.70;99.90;;;;;;5054569;28;20024;-86
2021/11/04 11:39:55;;;;;;;2.72;2.63;;;12.70;99.90;;;;;;5055454;28;20024;-86
2021/11/04 11:42:24;;;;;;;2.90;2.70;;;12.70;99.90;;;;;;5055540;28;20082;-87
2021/11/04 11:45:01;;;;;;;2.42;2.10;;;12.70;99.90;;;;;;5073504;28;20028;-85
2021/11/04 11:47:32;;;;;;;2.45;2.20;;;12.80;99.90;;;;;;5055262;28;20044;-86
2021/11/04 11:50:32;;;;;;;3.00;2.80;;;12.80;99.90;;;;;;5073148;28;20021;-85
2021/11/04 11:52:57;;;;;;;2.85;2.65;;;12.90;99.90;;;;;;5055122;28;20027;-86
2021/11/04 11:55:39;;;;;;;2.42;2.33;;;12.90;99.90;;;;;;5055238;28;20036;-86
2021/11/04 11:58:14;;;;;;;2.58;2.38;;;12.90;99.90;;;;;;5055248;28;20036;-86
2021/11/04 12:01:02;;;;;;;6.55;5.38;;;12.90;99.90;;;;;;5055198;28;20025;-86
2021/11/04 12:03:38;;;;;;;3.83;3.47;;;12.90;99.90;;;;;;5054818;28;20123;-87
2021/11/04 12:06:27;;;;;;;3.83;3.53;;;12.90;99.90;;;;;;5065376;28;20035;-86
2021/11/04 12:08:59;;;;;;;3.33;3.03;;;13.00;99.90;;;;;;5092873;28;20028;-86
2021/11/04 12:11:37;;;;;;;3.13;2.60;;;13.00;99.90;;;;;;5074844;28;20043;-86
2021/11/04 12:14:18;;;;;;;2.55;2.45;;;13.10;99.90;;;;;;5093161;28;20024;-87
2021/11/04 12:17:03;;;;;;;2.78;2.58;;;13.10;99.90;;;;;;5074581;28;20032;-86
2021/11/04 12:19:35;;;;;;;3.53;3.22;;;13.10;99.90;;;;;;5092857;28;20031;-86
2021/11/04 12:22:01;;;;;;;3.63;3.33;;;13.10;99.90;;;;;;5074354;28;20118;-87
2021/11/04 12:24:27;;;;;;;4.53;4.13;;;13.10;99.90;;;;;;5092892;28;20478;-86
2021/11/04 12:26:54;;;;;;;5.45;4.15;;;13.10;99.90;;;;;;5074918;28;20124;-87
2021/11/04 12:29:26;;;;;;;3.95;3.30;;;13.10;99.90;;;;;;5092752;28;20024;-86
2021/11/04 12:31:52;;;;;;;2.85;2.65;;;13.10;99.90;;;;;;5074351;28;20024;-87
2021/11/04 12:34:25;;;;;;;2.95;2.75;;;13.00;99.90;;;;;;5092475;28;20501;-86
2021/11/04 12:36:52;;;;;;;3.63;3.42;;;12.90;99.90;;;;;;5075057;28;20025;-86
2021/11/04 12:39:29;;;;;;;4.40;4.00;;;12.90;99.90;;;;;;5054433;28;20075;-86
2021/11/04 12:41:59;;;;;;;3.97;3.75;;;12.90;99.90;;;;;;5054230;28;20108;-86
2021/11/04 12:44:26;;;;;;;3.40;3.20;;;13.00;99.90;;;;;;5072122;28;20032;-87
2021/11/04 12:46:52;;;;;;;5.80;4.03;;;12.90;99.90;;;;;;5054064;28;20482;-86
2021/11/04 12:49:24;;;;;;;4.05;3.83;;;12.90;99.90;;;;;;5071977;28;20021;-87
2021/11/04 12:51:53;;;;;;;4.47;4.10;;;12.90;99.90;;;;;;5072128;28;20109;-87